Time;durP1;ratioP1;P1;durP2;ratioP2;P2;SDS_P1;SDS_P2;PMS_P1;PMS_P2;Temp;Humidity;BMP_temperature;BMP_pressure;BME280_temperature;BME280_humidity;BME280_pressure;Samples;Min_cycle;Max_cycle;Signal;HPM_P1;HPM_P2
2021/12/10 00:02:04;;;;;;;11.65;8.05;;;;;;;10.60;58.50;99752.81;5079231;28;20059;-58
2021/12/10 00:04:48;;;;;;;12.60;8.20;;;;;;;10.41;59.55;99752.56;5091806;28;20043;-58
2021/12/10 00:07:34;;;;;;;;;;;;;;;10.36;58.28;99755.50;5073121;28;20059;-58
2021/12/10 00:10:23;;;;;;;13.85;7.53;;;;;;;10.62;62.61;99757.91;5071280;28;19920;-58
2021/12/10 00:13:09;;;;;;;13.30;8.27;;;;;;;10.43;59.03;99754.94;5058172;28;20514;-58
2021/12/10 00:15:55;;;;;;;15.00;8.98;;;;;;;10.42;60.52;99750.63;5082081;28;20403;-58
2021/12/10 00:18:46;;;;;;;14.57;9.60;;;;;;;10.40;61.18;99756.41;5082890;28;20048;-58
2021/12/10 00:21:30;;;;;;;14.02;9.55;;;;;;;10.48;64.38;99752.00;5065803;28;20051;-57
2021/12/10 00:24:16;;;;;;;17.88;10.38;;;;;;;10.54;67.58;99753.38;5084127;28;20059;-58
2021/12/10 00:27:05;;;;;;;14.65;10.02;;;;;;;10.27;64.73;99758.31;5074391;28;20044;-57
2021/12/10 00:29:50;;;;;;;14.25;10.45;;;;;;;10.14;63.83;99753.94;5072890;28;20063;-58
2021/12/10 00:32:45;;;;;;;17.98;9.80;;;;;;;9.88;60.67;99754.22;5078456;28;20047;-58
2021/12/10 00:35:32;;;;;;;16.70;9.55;;;;;;;9.83;60.16;99748.97;5079412;28;20517;-58
2021/12/10 00:38:17;;;;;;;11.68;8.23;;;;;;;9.98;64.74;99755.72;5092899;28;20051;-58
2021/12/10 00:41:04;;;;;;;20.55;7.82;;;;;;;9.90;63.25;99753.88;5092780;28;20047;-58
2021/12/10 00:43:50;;;;;;;14.23;8.43;;;;;;;10.19;65.96;99747.53;5068063;28;20510;-58
2021/12/10 00:46:35;;;;;;;30.38;9.13;;;;;;;10.06;64.62;99757.53;5081141;28;20059;-58
2021/12/10 00:49:20;;;;;;;15.85;6.97;;;;;;;9.74;62.27;99751.00;5091988;28;20536;-58
2021/12/10 00:52:07;;;;;;;12.93;5.75;;;;;;;9.74;63.95;99744.75;5069481;28;20048;-58
2021/12/10 00:54:52;;;;;;;20.25;9.07;;;;;;;9.68;63.63;99740.66;5067977;28;20039;-58
2021/12/10 00:57:37;;;;;;;14.10;6.55;;;;;;;9.95;66.47;99734.66;5062397;28;20162;-58
2021/12/10 01:00:44;;;;;;;21.58;8.25;;;;;;;10.00;67.32;99734.44;5071929;28;20043;-58
2021/12/10 01:03:33;;;;;;;14.98;7.32;;;;;;;9.68;65.42;99741.47;5070237;28;20059;-58
2021/12/10 01:06:19;;;;;;;13.50;8.05;;;;;;;9.71;65.81;99735.34;5092259;28;20046;-58
2021/12/10 01:09:12;;;;;;;17.13;7.45;;;;;;;9.84;66.71;99733.50;5090663;28;20055;-58
2021/12/10 01:12:05;;;;;;;12.20;6.82;;;;;;;10.00;67.28;99725.50;5080271;28;20048;-58
2021/12/10 01:16:07;;;;;;;9.68;6.88;;;;;;;9.87;66.13;99732.81;5071971;28;20062;-58
2021/12/10 01:27:34;;;;;;;16.63;7.18;;;;;;;9.59;60.93;99704.66;5072337;28;20047;-59
2021/12/10 01:30:27;;;;;;;16.23;6.38;;;;;;;9.70;67.08;99722.13;5080320;28;20055;-59
2021/12/10 01:33:17;;;;;;;13.60;6.47;;;;;;;9.78;68.03;99726.69;5085918;28;20054;-59
2021/12/10 01:36:07;;;;;;;8.95;6.82;;;;;;;9.79;68.15;99725.56;5081109;28;20521;-59
2021/12/10 01:38:54;;;;;;;24.05;7.57;;;;;;;9.44;66.34;99735.91;5076803;28;20051;-59
2021/12/10 01:41:42;;;;;;;25.42;8.18;;;;;;;9.31;62.02;99721.47;5054927;28;20546;-59
2021/12/10 01:44:32;;;;;;;45.67;9.38;;;;;;;9.23;58.91;99721.56;5062058;28;20419;-59
2021/12/10 01:47:23;;;;;;;8.13;6.03;;;;;;;9.56;66.40;99721.59;5059734;28;20051;-59
2021/12/10 01:50:08;;;;;;;34.05;7.68;;;;;;;9.34;62.12;99739.81;5061121;28;20055;-59
2021/12/10 01:53:11;;;;;;;15.52;7.07;;;;;;;9.49;67.72;99743.06;5062087;28;20752;-59
2021/12/10 01:56:00;;;;;;;30.05;7.28;;;;;;;9.30;66.53;99738.06;5074246;28;20051;-59
2021/12/10 01:58:47;;;;;;;26.05;8.55;;;;;;;9.11;63.96;99727.69;5072923;28;20047;-59
2021/12/10 02:01:40;;;;;;;14.90;7.50;;;;;;;9.38;68.42;99724.47;5064670;28;20546;-59
2021/12/10 02:04:33;;;;;;;7.90;5.88;;;;;;;9.60;70.51;99719.81;5067635;28;20043;-60
2021/12/10 02:07:24;;;;;;;11.52;6.38;;;;;;;9.36;69.34;99729.41;5061723;28;20056;-59
2021/12/10 02:10:11;;;;;;;20.85;9.07;;;;;;;9.30;67.84;99719.88;5067781;28;20051;-59
2021/12/10 02:12:58;;;;;;;7.78;5.97;;;;;;;9.37;66.43;99724.78;5072188;28;20510;-59
2021/12/10 02:15:43;;;;;;;10.90;6.03;;;;;;;9.56;70.58;99727.81;5063785;28;20047;-59
2021/12/10 02:18:28;;;;;;;20.65;6.60;;;;;;;9.20;69.33;99725.69;5060904;28;20048;-59
2021/12/10 02:21:15;;;;;;;9.98;5.68;;;;;;;8.98;65.16;99717.91;5067115;28;20047;-59
2021/12/10 02:24:02;;;;;;;16.52;7.18;;;;;;;9.02;59.87;99719.63;5070396;28;20093;-59
2021/12/10 02:26:57;;;;;;;27.63;7.78;;;;;;;9.12;62.34;99710.28;5065748;28;20047;-59
2021/12/10 02:29:42;;;;;;;;;;;;;;;9.38;69.67;99712.81;5073151;28;20048;-59
2021/12/10 02:32:27;;;;;;;9.82;6.22;;;;;;;9.13;68.13;99721.94;5073918;28;20283;-60
2021/12/10 02:35:14;;;;;;;5.10;4.32;;;;;;;9.20;66.06;99720.28;5074456;28;20059;-59
2021/12/10 02:37:59;;;;;;;8.25;6.32;;;;;;;9.19;61.60;99713.28;5054505;28;20048;-59
2021/12/10 02:40:50;;;;;;;7.82;5.38;;;;;;;9.38;66.20;99708.19;5053909;28;20063;-60
2021/12/10 02:43:37;;;;;;;11.70;7.38;;;;;;;9.45;66.15;99700.28;5077698;28;20049;-60
2021/12/10 02:46:22;;;;;;;;;;;;;;;9.31;61.46;99697.06;5078470;28;20072;-59
2021/12/10 02:49:09;;;;;;;9.63;6.88;;;;;;;9.35;59.84;99703.41;5079665;28;19912;-59
2021/12/10 02:51:54;;;;;;;15.35;6.82;;;;;;;9.37;58.71;99692.22;5078546;28;20064;-59
2021/12/10 02:54:42;;;;;;;9.32;5.43;;;;;;;9.27;55.95;99684.50;5078849;28;20055;-59
2021/12/10 02:57:27;;;;;;;9.50;5.97;;;;;;;9.36;57.95;99675.16;5058639;28;20431;-59
2021/12/10 03:00:17;;;;;;;20.38;6.13;;;;;;;9.26;57.06;99675.56;5056252;28;20044;-59
2021/12/10 03:03:02;;;;;;;12.57;6.53;;;;;;;9.12;58.61;99669.63;5055412;28;20044;-59
2021/12/10 03:05:47;;;;;;;25.17;7.75;;;;;;;9.14;60.51;99674.72;5055091;28;20052;-59
2021/12/10 03:08:32;;;;;;;12.10;7.03;;;;;;;9.20;59.06;99678.78;5074273;28;20047;-59
2021/12/10 03:11:25;;;;;;;6.80;4.65;;;;;;;9.22;58.66;99685.50;5055092;28;20060;-59
2021/12/10 03:14:11;;;;;;;9.57;6.03;;;;;;;9.23;57.96;99678.16;5069032;28;20051;-59
2021/12/10 03:16:59;;;;;;;17.00;6.20;;;;;;;9.07;56.41;99667.09;5077586;28;20052;-59
2021/12/10 03:19:45;;;;;;;8.35;6.22;;;;;;;9.12;58.98;99666.09;5078613;28;20060;-59
2021/12/10 03:22:31;;;;;;;11.65;5.47;;;;;;;9.14;58.22;99672.00;5076705;28;20048;-59
2021/12/10 03:25:17;;;;;;;6.32;4.57;;;;;;;9.08;58.32;99679.53;5074652;28;20051;-59
2021/12/10 03:28:03;;;;;;;13.40;5.68;;;;;;;9.08;56.85;99678.75;5074516;28;20044;-59
2021/12/10 03:30:52;;;;;;;26.48;6.38;;;;;;;8.74;57.40;99682.47;5078839;28;20063;-59
2021/12/10 03:33:41;;;;;;;14.20;6.03;;;;;;;8.62;56.93;99677.78;5074994;28;20403;-59
2021/12/10 03:36:27;;;;;;;7.80;5.88;;;;;;;8.67;59.10;99668.66;5104963;22;20715;-79
2021/12/10 03:39:14;;;;;;;7.47;5.55;;;;;;;8.74;59.82;99672.41;5098401;28;20047;-78
2021/12/10 03:42:00;;;;;;;17.73;6.13;;;;;;;8.79;60.34;99669.50;5082910;28;20043;-78
2021/12/10 03:44:45;;;;;;;9.90;6.18;;;;;;;8.76;56.62;99655.84;5101464;28;20047;-79
2021/12/10 03:47:30;;;;;;;15.95;5.35;;;;;;;8.57;58.59;99662.50;5041365;28;20074;-81
2021/12/10 03:50:26;;;;;;;7.20;4.88;;;;;;;8.79;61.99;99657.88;5056234;28;20048;-79
2021/12/10 03:53:12;;;;;;;8.52;6.22;;;;;;;8.87;58.88;99662.47;5061708;28;20059;-80
2021/12/10 03:56:00;;;;;;;9.77;6.88;;;;;;;8.88;57.56;99664.84;5062803;28;20523;-79
2021/12/10 03:58:47;;;;;;;11.18;7.78;;;;;;;8.69;57.75;99666.38;5059778;28;20055;-77
2021/12/10 04:01:35;;;;;;;16.05;8.63;;;;;;;8.69;57.56;99656.34;5080104;28;20059;-78
2021/12/10 04:04:35;;;;;;;19.20;8.48;;;;;;;8.68;56.43;99649.38;5049116;28;20412;-79
2021/12/10 04:07:23;;;;;;;18.83;8.38;;;;;;;8.40;57.00;99638.19;5058367;28;20408;-78
2021/12/10 04:10:11;;;;;;;13.55;8.38;;;;;;;8.62;59.36;99633.63;5054442;28;20047;-78
2021/12/10 04:12:56;;;;;;;21.73;7.97;;;;;;;8.63;56.65;99632.50;5039096;28;20052;-79
2021/12/10 04:15:41;;;;;;;8.55;5.43;;;;;;;8.50;56.51;99634.31;5066073;28;20054;-79
2021/12/10 04:18:26;;;;;;;12.32;6.07;;;;;;;8.66;56.07;99634.53;5061280;28;20551;-78
2021/12/10 04:21:12;;;;;;;12.32;7.03;;;;;;;8.65;57.66;99632.94;5033369;28;20047;-79
2021/12/10 04:23:57;;;;;;;9.52;6.45;;;;;;;8.65;55.17;99628.31;5052409;28;20243;-79
2021/12/10 04:26:47;;;;;;;12.30;7.28;;;;;;;8.68;60.02;99643.94;5062363;28;20047;-79
2021/12/10 04:29:32;;;;;;;15.32;7.80;;;;;;;8.71;61.21;99645.97;5075092;28;20412;-79
2021/12/10 04:32:17;;;;;;;7.65;5.75;;;;;;;8.65;58.39;99638.38;5059297;28;20444;-79
2021/12/10 04:35:02;;;;;;;9.50;6.20;;;;;;;8.61;56.48;99632.03;5074476;28;20523;-79
2021/12/10 04:37:51;;;;;;;17.15;8.57;;;;;;;8.55;55.96;99629.50;5040651;28;20401;-79
2021/12/10 04:40:36;;;;;;;11.75;7.82;;;;;;;8.55;55.94;99629.50;5030470;28;20044;-79
2021/12/10 04:43:23;;;;;;;14.05;7.45;;;;;;;8.50;58.13;99635.09;5027684;28;20059;-79
2021/12/10 04:46:08;;;;;;;17.00;7.93;;;;;;;8.54;59.19;99632.53;5038269;28;20044;-78
2021/12/10 04:49:02;;;;;;;10.60;6.45;;;;;;;8.64;58.80;99636.78;5043897;28;20048;-78
2021/12/10 04:51:53;;;;;;;7.15;4.60;;;;;;;8.80;63.61;99643.22;5058749;28;20408;-78
2021/12/10 04:54:38;;;;;;;6.18;4.95;;;;;;;8.97;67.38;99635.75;5057683;28;20052;-79
2021/12/10 04:57:23;;;;;;;8.48;5.25;;;;;;;9.06;67.61;99638.41;5043435;28;20048;-78
2021/12/10 05:00:12;;;;;;;4.65;3.42;;;;;;;9.14;68.75;99642.97;5059473;28;20052;-79
2021/12/10 05:03:00;;;;;;;5.82;4.63;;;;;;;9.26;71.73;99643.00;5059142;28;20047;-78
2021/12/10 05:05:46;;;;;;;8.02;4.85;;;;;;;9.34;72.32;99638.66;5062203;28;20051;-78
2021/12/10 05:08:32;;;;;;;5.63;4.20;;;;;;;9.41;73.99;99628.03;5064931;28;20044;-78
2021/12/10 05:11:18;;;;;;;12.18;7.13;;;;;;;9.19;70.31;99626.50;5048252;28;20047;-79
2021/12/10 05:14:05;;;;;;;13.93;5.70;;;;;;;8.90;63.37;99631.97;5060015;28;20043;-80
2021/12/10 05:16:52;;;;;;;14.68;5.97;;;;;;;9.05;64.97;99641.44;5062743;28;20524;-79
2021/12/10 05:19:39;;;;;;;15.43;6.80;;;;;;;8.95;59.66;99642.63;5072216;28;20124;-79
2021/12/10 05:22:24;;;;;;;17.42;7.97;;;;;;;8.69;59.92;99645.50;5084495;28;20051;-79
2021/12/10 05:25:10;;;;;;;10.70;6.00;;;;;;;8.68;59.40;99646.66;5076561;28;20055;-79
2021/12/10 05:27:56;;;;;;;18.77;8.07;;;;;;;8.70;60.09;99643.59;5089007;28;20047;-77
2021/12/10 05:30:42;;;;;;;31.40;8.75;;;;;;;8.52;57.93;99637.50;5068588;28;20047;-79
2021/12/10 05:33:28;;;;;;;13.60;6.95;;;;;;;8.43;61.12;99631.34;5060257;28;20043;-81
2021/12/10 05:36:13;;;;;;;9.98;6.97;;;;;;;8.40;60.27;99632.78;5052170;28;20062;-80
2021/12/10 05:38:58;;;;;;;9.40;6.63;;;;;;;8.46;58.70;99626.06;5057201;28;20056;-78
2021/12/10 05:41:43;;;;;;;7.95;5.55;;;;;;;8.48;58.49;99623.78;5064280;28;20047;-80
2021/12/10 05:44:28;;;;;;;8.45;4.88;;;;;;;8.40;58.75;99630.06;5064497;28;20047;-80
2021/12/10 05:47:13;;;;;;;12.40;7.20;;;;;;;8.23;58.75;99630.13;5078544;28;20047;-79
2021/12/10 05:49:57;;;;;;;6.38;4.90;;;;;;;8.23;59.96;99638.22;5047030;28;20048;-80
2021/12/10 05:52:42;;;;;;;6.28;4.38;;;;;;;8.32;59.52;99639.03;5056741;28;20417;-78
2021/12/10 05:55:27;;;;;;;6.53;4.57;;;;;;;8.29;58.75;99636.16;5032338;28;20525;-79
2021/12/10 05:58:13;;;;;;;10.23;6.00;;;;;;;8.34;57.73;99634.06;5043897;28;20048;-79
2021/12/10 06:01:03;;;;;;;7.82;6.10;;;;;;;8.33;58.05;99631.72;5044098;28;20055;-80
2021/12/10 06:03:52;;;;;;;15.60;7.57;;;;;;;8.18;57.87;99631.09;5061721;28;20047;-79
2021/12/10 06:06:37;;;;;;;11.25;8.23;;;;;;;8.26;58.23;99637.59;5060284;28;20420;-80
2021/12/10 06:09:23;;;;;;;10.35;6.15;;;;;;;8.27;57.66;99628.38;5051705;28;20126;-79
2021/12/10 06:12:08;;;;;;;9.48;7.80;;;;;;;8.32;58.55;99636.34;5067445;28;20051;-78
2021/12/10 06:14:53;;;;;;;7.13;5.18;;;;;;;8.30;63.80;99643.19;5057823;28;20079;-79
2021/12/10 06:17:38;;;;;;;9.27;4.53;;;;;;;8.53;69.83;99650.69;5071470;28;20554;-78
2021/12/10 06:20:28;;;;;;;5.97;4.40;;;;;;;8.60;72.10;99652.91;5063197;28;20424;-80
2021/12/10 06:23:15;;;;;;;8.85;5.32;;;;;;;8.66;73.31;99659.72;5065941;28;20051;-78
2021/12/10 06:26:00;;;;;;;10.20;5.95;;;;;;;8.49;73.37;99663.31;5038056;28;20043;-79
2021/12/10 06:28:45;;;;;;;12.40;8.43;;;;;;;8.40;71.90;99657.16;5056754;28;20531;-80
2021/12/10 06:31:30;;;;;;;10.35;6.32;;;;;;;8.48;72.88;99648.19;5045649;28;20397;-80
2021/12/10 06:34:15;;;;;;;4.60;3.22;;;;;;;8.79;75.37;99655.16;5043889;28;20421;-80
2021/12/10 06:37:00;;;;;;;11.65;4.55;;;;;;;8.80;75.74;99656.75;5059251;28;20044;-79
2021/12/10 06:39:45;;;;;;;15.55;4.30;;;;;;;8.75;75.27;99648.81;5068251;28;20051;-80
2021/12/10 06:42:31;;;;;;;13.43;7.72;;;;;;;8.75;75.01;99651.53;5070734;28;20055;-79
2021/12/10 06:45:17;;;;;;;;;;;;;;;8.72;73.32;99649.50;5098276;28;20074;-81
2021/12/10 06:48:05;;;;;;;13.60;8.07;;;;;;;8.69;72.47;99644.72;5097611;28;19923;-78
2021/12/10 06:50:53;;;;;;;29.75;8.65;;;;;;;8.11;56.38;99630.03;5059652;28;20051;-78
2021/12/10 06:53:40;;;;;;;21.75;8.27;;;;;;;8.09;54.60;99616.81;5084752;28;20040;-79
2021/12/10 06:56:25;;;;;;;19.63;8.98;;;;;;;8.03;54.21;99611.88;5069778;28;20047;-80
2021/12/10 06:59:10;;;;;;;39.45;10.55;;;;;;;7.94;53.66;99603.00;5063217;28;20075;-79
2021/12/10 07:01:55;;;;;;;14.65;7.05;;;;;;;7.81;53.78;99598.63;5079993;28;20047;-79
2021/12/10 07:04:41;;;;;;;20.05;7.82;;;;;;;7.70;53.03;99590.06;5066376;28;20047;-79
2021/12/10 07:07:26;;;;;;;23.33;9.57;;;;;;;7.70;53.44;99581.94;5041756;28;20056;-78
2021/12/10 07:10:14;;;;;;;15.02;6.88;;;;;;;7.60;58.70;99593.91;5086137;28;20051;-78
2021/12/10 07:13:00;;;;;;;15.02;8.68;;;;;;;7.67;62.34;99585.28;5045232;28;20044;-80
2021/12/10 07:15:47;;;;;;;19.77;9.85;;;;;;;7.79;63.87;99595.44;5051236;28;20525;-79
2021/12/10 07:18:33;;;;;;;32.58;7.90;;;;;;;7.93;65.41;99593.31;5049064;28;20047;-83
2021/12/10 07:21:19;;;;;;;36.88;10.18;;;;;;;4.05;61.90;99588.41;5050560;28;20066;-78
2021/12/10 07:24:05;;;;;;;;;;;;;;;3.93;62.30;99588.09;5060032;28;20055;-77
2021/12/10 07:26:50;;;;;;;17.30;10.82;;;;;;;3.63;63.89;99578.72;5060803;28;19911;-78
2021/12/10 07:29:35;;;;;;;28.02;9.82;;;;;;;3.47;63.84;99582.78;5051718;28;20047;-78
2021/12/10 07:32:19;;;;;;;33.92;9.85;;;;;;;3.13;64.21;99579.63;5075154;28;20397;-78
2021/12/10 07:35:08;;;;;;;13.88;9.05;;;;;;;3.30;64.63;99579.88;5088554;28;20051;-78
2021/12/10 07:37:52;;;;;;;17.15;10.50;;;;;;;3.21;64.99;99576.25;5054247;28;20048;-78
2021/12/10 07:40:38;;;;;;;18.55;10.32;;;;;;;2.58;65.31;99580.19;5051281;28;20052;-77
2021/12/10 07:43:22;;;;;;;23.33;9.55;;;;;;;2.37;67.16;99578.88;5064099;28;20063;-78
2021/12/10 07:46:08;;;;;;;14.13;9.27;;;;;;;2.33;68.95;99575.19;5056597;28;20055;-78
2021/12/10 07:48:53;;;;;;;20.55;9.60;;;;;;;2.62;67.22;99576.91;5052016;28;20047;-80
2021/12/10 07:51:38;;;;;;;14.75;9.02;;;;;;;2.64;67.52;99572.88;5059374;28;20052;-79
2021/12/10 07:54:23;;;;;;;15.82;8.35;;;;;;;2.72;66.77;99568.72;5040602;28;20199;-79
2021/12/10 07:57:08;;;;;;;24.70;9.20;;;;;;;2.79;66.07;99563.78;5043165;28;20060;-78
2021/12/10 07:59:53;;;;;;;33.88;17.17;;;;;;;2.65;67.53;99561.03;5041593;28;20051;-79
2021/12/10 08:02:38;;;;;;;19.70;10.40;;;;;;;2.95;71.81;99554.38;5032347;28;20409;-78
2021/12/10 08:05:24;;;;;;;17.35;10.00;;;;;;;3.05;67.88;99550.75;5036661;28;20043;-78
2021/12/10 08:08:10;;;;;;;24.08;12.48;;;;;;;3.26;66.71;99550.09;5053645;28;20120;-77
2021/12/10 08:10:55;;;;;;;26.48;13.98;;;;;;;3.73;69.05;99548.16;5043001;28;20051;-79
2021/12/10 08:13:40;;;;;;;23.70;9.00;;;;;;;3.87;71.90;99540.91;5063816;28;20506;-77
2021/12/10 08:16:25;;;;;;;17.95;9.85;;;;;;;3.81;68.62;99532.13;5049287;28;20040;-78
2021/12/10 08:19:12;;;;;;;21.67;11.05;;;;;;;3.88;67.90;99531.75;5036967;28;20039;-78
2021/12/10 08:21:58;;;;;;;26.27;12.88;;;;;;;3.90;66.42;99521.50;5055358;28;20044;-77
2021/12/10 08:24:43;;;;;;;24.60;12.05;;;;;;;3.94;66.16;99522.47;5049363;28;20052;-78
2021/12/10 08:27:28;;;;;;;25.08;11.13;;;;;;;4.11;66.01;99514.59;5043966;28;20052;-79
2021/12/10 08:30:16;;;;;;;19.55;9.75;;;;;;;4.09;65.29;99521.34;5031154;28;20047;-77
2021/12/10 08:33:01;;;;;;;25.80;13.77;;;;;;;3.86;65.86;99523.97;5085766;28;20039;-76
2021/12/10 08:35:53;;;;;;;22.98;11.60;;;;;;;3.99;65.78;99518.88;5065185;28;20051;-76
2021/12/10 08:38:38;;;;;;;26.15;12.07;;;;;;;4.09;65.82;99511.41;5089848;28;20039;-76
2021/12/10 08:41:28;;;;;;;21.33;12.55;;;;;;;4.14;65.80;99513.97;5067145;28;20515;-76
2021/12/10 08:44:13;;;;;;;22.85;13.90;;;;;;;4.18;65.10;99509.59;5043045;28;20047;-77
2021/12/10 08:46:58;;;;;;;19.05;10.23;;;;;;;4.24;68.30;99513.75;5038608;28;20052;-76
2021/12/10 08:49:43;;;;;;;24.38;11.18;;;;;;;4.65;66.38;99513.63;5044905;28;20535;-76
2021/12/10 08:52:28;;;;;;;13.18;8.93;;;;;;;4.63;65.71;99515.81;5043506;28;20043;-76
2021/12/10 08:55:13;;;;;;;19.58;9.38;;;;;;;4.51;66.08;99501.31;5028688;28;20047;-77
2021/12/10 08:57:59;;;;;;;18.08;8.77;;;;;;;4.45;65.99;99497.16;5052712;28;20056;-77
2021/12/10 09:00:52;;;;;;;23.92;13.15;;;;;;;4.59;65.93;99492.50;5040750;28;20048;-77
2021/12/10 09:03:37;;;;;;;25.80;13.18;;;;;;;4.66;66.24;99490.19;5029852;28;20048;-76
2021/12/10 09:06:28;;;;;;;18.95;9.32;;;;;;;4.58;67.05;99485.53;5072468;28;20051;-77
2021/12/10 09:09:14;;;;;;;18.85;11.45;;;;;;;4.89;65.90;99488.28;5057563;28;20055;-77
2021/12/10 09:12:03;;;;;;;21.98;12.52;;;;;;;4.22;68.48;99493.63;5062114;28;20072;-77
2021/12/10 09:14:52;;;;;;;21.08;11.82;;;;;;;4.30;68.64;99501.78;5072930;28;20119;-77
2021/12/10 09:17:40;;;;;;;20.88;10.48;;;;;;;4.16;69.10;99501.03;5058116;28;20052;-77
2021/12/10 09:20:35;;;;;;;18.25;10.15;;;;;;;3.95;70.80;99510.63;5051849;28;20504;-77
2021/12/10 09:23:24;;;;;;;11.55;7.80;;;;;;;4.16;69.78;99516.38;5068985;28;20039;-76
2021/12/10 09:26:13;;;;;;;18.52;10.93;;;;;;;4.24;71.06;99532.59;5041171;28;20052;-76
2021/12/10 09:28:59;;;;;;;23.50;11.80;;;;;;;4.23;70.86;99536.38;5069673;28;20051;-78
2021/12/10 09:31:44;;;;;;;22.23;10.63;;;;;;;4.05;71.46;99536.50;5075080;28;20059;-78
2021/12/10 09:34:29;;;;;;;17.75;10.85;;;;;;;4.39;71.59;99538.72;5048591;28;20520;-78
2021/12/10 09:37:15;;;;;;;16.63;8.90;;;;;;;4.49;71.56;99535.81;5113717;22;20047;-65
2021/12/10 09:40:04;;;;;;;22.23;12.20;;;;;;;4.57;71.95;99537.81;5107050;28;20410;-56
2021/12/10 09:42:49;;;;;;;24.10;11.40;;;;;;;4.67;72.93;99534.88;5091912;28;20039;-56
2021/12/10 09:45:37;;;;;;;15.40;8.77;;;;;;;4.50;71.98;99537.41;5078027;28;20063;-56
2021/12/10 09:48:24;;;;;;;29.20;11.80;;;;;;;4.85;69.93;99528.50;5071705;28;20047;-57
2021/12/10 09:51:14;;;;;;;20.45;11.05;;;;;;;5.06;69.94;99526.91;5068650;28;20052;-57
2021/12/10 09:54:02;;;;;;;22.92;11.43;;;;;;;5.17;68.47;99524.75;5076018;28;20059;-57
2021/12/10 09:56:51;;;;;;;19.77;10.82;;;;;;;4.83;69.57;99525.31;5087699;28;20102;-57
2021/12/10 09:59:39;;;;;;;18.40;11.07;;;;;;;4.52;70.63;99511.00;5080003;28;20407;-57
2021/12/10 10:02:24;;;;;;;25.35;11.27;;;;;;;4.40;69.90;99511.53;5077463;28;20048;-58
2021/12/10 10:05:09;;;;;;;22.52;13.55;;;;;;;4.49;70.55;99498.13;5087443;28;20051;-57
2021/12/10 10:07:58;;;;;;;24.30;13.98;;;;;;;4.74;69.70;99498.31;5071911;28;20055;-56
2021/12/10 10:10:48;;;;;;;21.10;12.57;;;;;;;4.23;70.21;99485.25;5086985;28;20051;-57
2021/12/10 10:13:37;;;;;;;19.83;10.90;;;;;;;4.55;69.36;99491.53;5091770;28;20518;-57
2021/12/10 10:16:26;;;;;;;20.17;11.68;;;;;;;4.84;69.21;99483.00;5091842;28;20505;-59
2021/12/10 10:19:14;;;;;;;27.10;11.88;;;;;;;4.41;68.74;99480.81;5091077;28;20051;-58
2021/12/10 10:22:01;;;;;;;21.58;10.63;;;;;;;4.45;68.31;99481.00;5082680;28;20122;-56
2021/12/10 10:24:46;;;;;;;20.42;10.77;;;;;;;4.37;69.45;99476.38;5075327;28;20055;-55
2021/12/10 10:27:34;;;;;;;15.43;7.85;;;;;;;4.40;69.85;99463.09;5061967;28;20043;-56
2021/12/10 10:30:25;;;;;;;17.20;11.02;;;;;;;4.91;67.82;99459.94;5070241;28;20047;-56
2021/12/10 10:33:10;;;;;;;19.40;10.98;;;;;;;5.20;68.01;99447.88;5075845;28;20051;-56
2021/12/10 10:35:57;;;;;;;18.40;7.60;;;;;;;5.33;67.44;99447.00;5091796;28;20059;-56
2021/12/10 10:38:46;;;;;;;23.90;10.70;;;;;;;5.19;68.65;99441.69;5097611;28;20051;-58
2021/12/10 10:41:33;;;;;;;21.30;10.68;;;;;;;4.98;68.90;99430.66;5072616;28;20064;-55
2021/12/10 10:44:18;;;;;;;16.80;10.00;;;;;;;5.08;69.61;99430.38;5063054;28;20415;-56
2021/12/10 10:47:03;;;;;;;11.88;6.95;;;;;;;5.03;69.13;99429.72;5083094;28;20056;-55
2021/12/10 10:49:49;;;;;;;;;;;;;;;4.95;69.62;99425.91;5074942;28;20079;-54
2021/12/10 10:52:37;;;;;;;26.63;10.65;;;;;;;5.09;69.28;99423.91;5071136;28;19912;-56
2021/12/10 10:55:27;;;;;;;17.70;10.30;;;;;;;4.95;69.71;99430.50;5079294;28;20403;-55
2021/12/10 10:58:15;;;;;;;19.52;10.55;;;;;;;5.18;69.43;99428.56;5081511;28;20047;-55
2021/12/10 11:01:20;;;;;;;29.30;12.93;;;;;;;5.41;67.93;99411.19;5085325;28;20051;-56
2021/12/10 11:04:15;;;;;;;17.42;10.82;;;;;;;4.98;69.94;99400.22;5073046;28;20036;-56
2021/12/10 11:07:11;;;;;;;13.07;7.90;;;;;;;4.97;70.31;99385.19;5092158;28;20055;-54
2021/12/10 11:10:04;;;;;;;27.08;14.23;;;;;;;5.11;70.25;99375.09;5094437;28;20115;-55
2021/12/10 11:12:49;;;;;;;23.00;11.23;;;;;;;5.01;70.98;99368.09;5094628;28;20051;-54
2021/12/10 11:15:35;;;;;;;12.48;8.20;;;;;;;5.26;70.17;99361.19;5096983;28;20066;-55
2021/12/10 11:18:19;;;;;;;13.07;7.68;;;;;;;5.26;70.00;99360.41;5094573;28;20415;-55
2021/12/10 11:21:04;;;;;;;13.98;7.97;;;;;;;5.37;69.23;99353.63;5074756;28;20048;-54
2021/12/10 11:23:49;;;;;;;16.88;6.53;;;;;;;5.32;70.38;99345.69;5069571;28;20039;-57
2021/12/10 11:27:03;;;;;;;13.57;7.40;;;;;;;5.48;69.01;99344.13;5065828;28;20083;-55
2021/12/10 11:29:52;;;;;;;13.57;7.68;;;;;;;5.53;67.96;99325.13;5067293;28;20048;-54
2021/12/10 11:32:45;;;;;;;16.90;8.45;;;;;;;5.51;69.31;99333.50;5067443;28;20048;-55
2021/12/10 11:35:42;;;;;;;15.65;8.07;;;;;;;5.47;68.58;99321.78;5059304;28;20059;-54
2021/12/10 11:38:31;;;;;;;19.08;8.45;;;;;;;5.34;69.09;99327.28;5069472;28;20032;-54
2021/12/10 11:41:23;;;;;;;16.83;8.05;;;;;;;5.30;69.59;99320.94;5063236;28;20043;-55
2021/12/10 11:47:25;;;;;;;19.98;7.72;;;;;;;5.25;68.16;99313.00;5068186;28;20416;-54
2021/12/10 11:50:16;;;;;;;11.70;5.97;;;;;;;5.18;68.27;99308.84;5066739;28;20051;-55
2021/12/10 11:53:10;;;;;;;9.98;4.97;;;;;;;5.23;66.69;99307.16;5071967;28;20039;-55
2021/12/10 11:56:01;;;;;;;7.28;3.97;;;;;;;5.25;64.51;99296.84;5072790;28;20048;-55
2021/12/10 11:59:07;;;;;;;8.88;3.22;;;;;;;5.44;63.52;99302.72;5072998;28;20039;-54
2021/12/10 12:02:04;;;;;;;;;;;;;;;5.47;63.18;99302.09;5061817;28;20047;-54
2021/12/10 12:04:53;;;;;;;6.40;3.08;;;;;;;5.67;62.28;99296.09;5072469;28;20368;-55
2021/12/10 12:08:10;;;;;;;10.30;3.70;;;;;;;5.71;62.47;99290.84;5068650;28;20055;-54
2021/12/10 12:11:00;;;;;;;7.30;3.45;;;;;;;5.92;61.75;99295.31;5063549;28;20052;-56
2021/12/10 12:13:54;;;;;;;4.53;3.30;;;;;;;5.87;62.58;99286.59;5071367;28;20039;-55
2021/12/10 12:16:39;;;;;;;11.13;4.75;;;;;;;6.20;61.24;99281.44;5069352;28;20051;-56
2021/12/10 12:19:30;;;;;;;8.68;3.03;;;;;;;6.22;62.22;99284.63;5060526;28;20047;-55
2021/12/10 12:25:29;;;;;;;9.15;3.17;;;;;;;6.30;62.49;99278.41;5068150;28;20043;-55
2021/12/10 12:28:18;;;;;;;7.28;3.63;;;;;;;6.38;61.67;99274.91;5063638;28;20055;-55
2021/12/10 12:31:17;;;;;;;11.80;4.95;;;;;;;6.42;60.92;99270.44;5067912;28;20071;-55
2021/12/10 12:34:28;;;;;;;15.18;3.42;;;;;;;6.43;62.02;99263.94;5068783;28;20048;-55
2021/12/10 12:37:15;;;;;;;4.63;2.75;;;;;;;6.35;62.01;99267.44;5074160;28;20052;-54
2021/12/10 12:40:03;;;;;;;7.80;3.17;;;;;;;6.16;62.28;99265.09;5073180;28;20056;-54
2021/12/10 12:42:49;;;;;;;14.23;4.90;;;;;;;6.13;62.78;99259.56;5072782;28;20044;-55
2021/12/10 12:45:35;;;;;;;12.23;4.35;;;;;;;6.09;63.00;99261.34;5072877;28;20059;-55
2021/12/10 12:48:20;;;;;;;13.27;4.30;;;;;;;6.16;62.20;99254.31;5081478;28;20044;-54
2021/12/10 12:51:12;;;;;;;7.40;3.13;;;;;;;6.20;62.99;99259.84;5065602;28;20412;-56
2021/12/10 12:53:57;;;;;;;6.18;3.03;;;;;;;5.69;65.04;99264.19;5066937;28;20412;-55
2021/12/10 12:56:42;;;;;;;5.68;2.70;;;;;;;5.66;64.66;99261.34;5059905;28;20047;-55
2021/12/10 12:59:28;;;;;;;3.72;2.40;;;;;;;5.93;65.58;99259.13;5064633;28;20067;-55
2021/12/10 13:02:13;;;;;;;9.38;3.50;;;;;;;6.08;65.17;99255.13;5065523;28;20056;-56
2021/12/10 13:04:57;;;;;;;4.78;2.92;;;;;;;6.18;64.15;99260.19;5061624;28;20044;-54
2021/12/10 13:07:42;;;;;;;10.00;3.40;;;;;;;6.26;65.11;99261.28;5065480;28;20455;-55
2021/12/10 13:10:28;;;;;;;9.35;3.95;;;;;;;6.35;64.96;99257.44;5075229;28;20052;-55
2021/12/10 13:13:15;;;;;;;15.57;8.50;;;;;;;6.35;64.34;99262.81;5084931;28;20035;-55
2021/12/10 13:16:00;;;;;;;10.35;4.85;;;;;;;6.48;64.64;99244.84;5065274;28;20059;-55
2021/12/10 13:18:45;;;;;;;5.05;2.47;;;;;;;6.49;64.11;99251.84;5073919;28;20043;-56
2021/12/10 13:21:30;;;;;;;7.13;2.63;;;;;;;6.30;66.14;99246.00;5070191;28;20047;-55
2021/12/10 13:24:16;;;;;;;6.53;3.35;;;;;;;6.28;66.44;99242.84;5078550;28;20039;-55
2021/12/10 13:27:02;;;;;;;6.13;3.42;;;;;;;6.36;66.50;99236.63;5074603;28;20059;-55